Allen, Maryland
Current Conditions -  °F | °C
As of 10:54 AM on Saturday 20 Dec 2014 (Local Time) from KSBY Reporting Station
Clear Clear  
Wind Chill: 36°   Ceiling: Unl
Heat Index: 36°   Visibility: 10mi
Dew Point: 25°   Wind: 3mph
Humidity: 64%   Direction: 330°NNW
Pressure: 30.3"   Gusts: NA
Location:  38.29°N, 75.69°W
Report Text: KSBY 201554Z 33003KT 10SM CLR 02/M04 A3030 RMK AO2 SLP264 T00221039
Loading
Personal Weather Stations






























Interactive Weather Map New forecast layout! Learn more

10-Day Weather Forecast

Advertisements
Track Severe Weather on mobile